Jupiter, FL (33458)

7:27 AM EDT on October 01, 2014 (GMT -0400)
Pennock Ln. | Change Station
CLOSE
Current Station
Personal Weather Station
Location: Jupiter, FL
Elevation: 20 ft
Nearby Weather Stations

Elev 20 ft 26.94 °N, 80.11 °W | Updated 0 second ago

Clear
Clear
75.1 °F
Feels Like 74 °F
N
0.0
Wind Variable Wind from SSE
Gusts 1.2 mph

Today
High -- | Low -- °F
--% Chance of Precip.
Yesterday
High -- | Low -- °F
Precip. -- in
7:13 AM 7:06 PM
Waxing Crescent, 46% visible
Pressure 29.89 in
Visibility 10.0 miles
Clouds Few 2500 ft
Heat Index 74 °F
Dew Point 73 °F
Humidity 93%
Rainfall 0.00 in
Snow Depth Not available.
UV 0.0 out of 12
Pollen 4.60 out of 12
Ozone Good
PM2.5 Good
Flu Activity Not available.
METAR KPBI 011053Z 00000KT 10SM FEW025 24/24 A2989 RMK SLP120 CB DSNT NE SE T02440239

More Conditions Fewer Conditions

Pressure 29.89 in
Visibility 10.0 miles
Clouds Few 2500 ft
Heat Index 74 °F
Dew Point 73 °F
Humidity 93%
Rainfall 0.00 in
Snow Depth Not available.
UV 0.0 out of 12
Pollen 4.60 out of 12
Ozone Good
PM2.5 Good
Flu Activity Not available.
METAR KPBI 011053Z 00000KT 10SM FEW025 24/24 A2989 RMK SLP120 CB DSNT NE SE T02440239

More Conditions Fewer Conditions

10-Day Weather Forecast

Almanac

Astronomy

Oct. 01, 2014 Rise Set
Actual Time 7:13 AM EDT 7:06 PM EDT
Civil Twilight 6:49 AM EDT 7:29 PM EDT
Nautical Twilight 6:22 AM EDT 7:56 PM EDT
Astronomical Twilight 5:55 AM EDT 8:23 PM EDT
Moon 1:49 PM EDT 12:00 AM EDT
Length of Visible Light 12h 40m
Length of Day
11h 53m
Tomorrow will be 1m 35s shorter.
Waxing Crescent, 46% of the Moon is Illuminated
Today
Waxing Crescent
Oct 1
First Quarter
Oct 8
Full
Oct 15
Last Quarter
Oct 23
New

Today's Extremes

State Highs State Lows

Community

WunderPhotos

Upload Photos

1,757,913 photos uploaded!

Nearby

Air Quality

  Air Quality AQ Index Pollutant
Yesterday Good
PM2.5
Yesterday Good
OZONE
Current Good
PM2.5
Current Good
OZONE
Wednesday Good
OZONE
Wednesday Good
PM2.5
Thursday Good
OZONE
Thursday Good
PM2.5

Snow Depth

Station Depth Elevation
No new snow has been reported.

Earthquake Activity

City Distance Mag. Time & Date
No recent earthquake activity has been reported nearby.
Minimum magnitude displayed is 2.5.

Coastal Water Temperatures

Place Temperature
Lake Worth, FL 84.9 °F
Virginia Key, FL 84.9 °F

Nearby Weather Stations